sensor_id;sensor_type;location;lat;lon;timestamp;P1;durP1;ratioP1;P2;durP2;ratioP2
20567;SDS011;10442;49.932;11.592;2023-04-25T00:00:29;5.07;;;4.68;;
20567;SDS011;10442;49.932;11.592;2023-04-25T00:02:56;4.97;;;4.57;;
20567;SDS011;10442;49.932;11.592;2023-04-25T00:05:25;4.57;;;4.18;;
20567;SDS011;10442;49.932;11.592;2023-04-25T00:07:53;5.00;;;4.18;;
20567;SDS011;10442;49.932;11.592;2023-04-25T00:10:20;4.45;;;4.05;;
20567;SDS011;10442;49.932;11.592;2023-04-25T00:12:48;3.97;;;3.65;;
20567;SDS011;10442;49.932;11.592;2023-04-25T00:15:16;3.80;;;3.50;;
20567;SDS011;10442;49.932;11.592;2023-04-25T00:17:44;4.40;;;4.00;;
20567;SDS011;10442;49.932;11.592;2023-04-25T00:20:12;4.07;;;3.78;;
20567;SDS011;10442;49.932;11.592;2023-04-25T00:22:39;4.65;;;4.30;;
20567;SDS011;10442;49.932;11.592;2023-04-25T00:25:07;4.20;;;3.90;;
20567;SDS011;10442;49.932;11.592;2023-04-25T00:27:35;4.82;;;4.28;;
20567;SDS011;10442;49.932;11.592;2023-04-25T00:30:02;4.28;;;3.97;;
20567;SDS011;10442;49.932;11.592;2023-04-25T00:32:30;4.03;;;3.72;;
20567;SDS011;10442;49.932;11.592;2023-04-25T00:34:58;4.22;;;3.92;;
20567;SDS011;10442;49.932;11.592;2023-04-25T00:37:25;3.78;;;3.47;;
20567;SDS011;10442;49.932;11.592;2023-04-25T00:39:52;4.28;;;3.88;;
20567;SDS011;10442;49.932;11.592;2023-04-25T00:42:21;6.53;;;3.88;;
20567;SDS011;10442;49.932;11.592;2023-04-25T00:44:49;3.55;;;3.25;;
20567;SDS011;10442;49.932;11.592;2023-04-25T00:47:17;3.20;;;2.95;;
20567;SDS011;10442;49.932;11.592;2023-04-25T00:49:44;4.05;;;3.65;;
20567;SDS011;10442;49.932;11.592;2023-04-25T00:52:11;6.00;;;3.78;;
20567;SDS011;10442;49.932;11.592;2023-04-25T00:54:39;3.80;;;3.05;;
20567;SDS011;10442;49.932;11.592;2023-04-25T00:57:07;4.35;;;3.95;;
20567;SDS011;10442;49.932;11.592;2023-04-25T00:59:34;3.42;;;3.20;;
20567;SDS011;10442;49.932;11.592;2023-04-25T01:02:04;3.10;;;2.90;;
20567;SDS011;10442;49.932;11.592;2023-04-25T01:04:31;3.55;;;3.25;;
20567;SDS011;10442;49.932;11.592;2023-04-25T01:06:59;5.10;;;3.70;;
20567;SDS011;10442;49.932;11.592;2023-04-25T01:09:26;4.10;;;3.80;;
20567;SDS011;10442;49.932;11.592;2023-04-25T01:11:54;4.68;;;3.85;;
20567;SDS011;10442;49.932;11.592;2023-04-25T01:14:22;4.07;;;3.65;;
20567;SDS011;10442;49.932;11.592;2023-04-25T01:16:49;3.38;;;3.17;;
20567;SDS011;10442;49.932;11.592;2023-04-25T01:19:17;4.65;;;4.25;;
20567;SDS011;10442;49.932;11.592;2023-04-25T01:21:46;3.95;;;3.65;;
20567;SDS011;10442;49.932;11.592;2023-04-25T01:24:14;4.28;;;3.97;;
20567;SDS011;10442;49.932;11.592;2023-04-25T01:26:42;4.18;;;3.78;;
20567;SDS011;10442;49.932;11.592;2023-04-25T01:29:20;4.28;;;3.90;;
20567;SDS011;10442;49.932;11.592;2023-04-25T01:31:48;4.35;;;4.05;;
20567;SDS011;10442;49.932;11.592;2023-04-25T01:34:18;4.68;;;4.13;;
20567;SDS011;10442;49.932;11.592;2023-04-25T01:36:47;4.13;;;3.83;;
20567;SDS011;10442;49.932;11.592;2023-04-25T01:39:17;3.67;;;3.38;;
20567;SDS011;10442;49.932;11.592;2023-04-25T01:41:45;4.40;;;4.10;;
20567;SDS011;10442;49.932;11.592;2023-04-25T01:44:13;4.00;;;3.72;;
20567;SDS011;10442;49.932;11.592;2023-04-25T01:46:41;4.35;;;3.53;;
20567;SDS011;10442;49.932;11.592;2023-04-25T01:49:10;4.95;;;4.55;;
20567;SDS011;10442;49.932;11.592;2023-04-25T01:51:38;3.75;;;3.40;;
20567;SDS011;10442;49.932;11.592;2023-04-25T01:54:07;4.07;;;3.78;;
20567;SDS011;10442;49.932;11.592;2023-04-25T01:56:36;3.53;;;3.17;;
20567;SDS011;10442;49.932;11.592;2023-04-25T01:59:06;4.18;;;3.88;;
20567;SDS011;10442;49.932;11.592;2023-04-25T02:01:49;6.32;;;4.32;;
20567;SDS011;10442;49.932;11.592;2023-04-25T02:04:25;3.97;;;3.67;;
20567;SDS011;10442;49.932;11.592;2023-04-25T02:06:53;4.28;;;3.88;;
20567;SDS011;10442;49.932;11.592;2023-04-25T02:09:21;4.55;;;4.25;;
20567;SDS011;10442;49.932;11.592;2023-04-25T02:11:55;4.18;;;3.78;;
20567;SDS011;10442;49.932;11.592;2023-04-25T02:14:34;3.40;;;3.20;;
20567;SDS011;10442;49.932;11.592;2023-04-25T02:17:06;4.28;;;3.97;;
20567;SDS011;10442;49.932;11.592;2023-04-25T02:19:34;3.50;;;3.30;;
20567;SDS011;10442;49.932;11.592;2023-04-25T02:22:02;3.88;;;3.53;;
20567;SDS011;10442;49.932;11.592;2023-04-25T02:24:29;4.05;;;3.75;;
20567;SDS011;10442;49.932;11.592;2023-04-25T02:26:56;3.95;;;3.53;;
20567;SDS011;10442;49.932;11.592;2023-04-25T02:29:23;4.22;;;3.90;;
20567;SDS011;10442;49.932;11.592;2023-04-25T02:31:51;3.45;;;3.25;;
20567;SDS011;10442;49.932;11.592;2023-04-25T02:34:19;4.95;;;3.85;;
20567;SDS011;10442;49.932;11.592;2023-04-25T02:36:48;4.50;;;4.10;;
20567;SDS011;10442;49.932;11.592;2023-04-25T02:39:17;4.03;;;3.72;;
20567;SDS011;10442;49.932;11.592;2023-04-25T02:41:45;5.03;;;4.22;;
20567;SDS011;10442;49.932;11.592;2023-04-25T02:44:12;4.70;;;4.30;;
20567;SDS011;10442;49.932;11.592;2023-04-25T02:46:39;3.83;;;3.53;;
20567;SDS011;10442;49.932;11.592;2023-04-25T02:49:07;5.25;;;4.40;;
20567;SDS011;10442;49.932;11.592;2023-04-25T02:51:35;4.95;;;4.47;;
20567;SDS011;10442;49.932;11.592;2023-04-25T02:54:02;4.60;;;4.28;;
20567;SDS011;10442;49.932;11.592;2023-04-25T02:56:33;4.68;;;4.28;;
20567;SDS011;10442;49.932;11.592;2023-04-25T02:59:01;4.47;;;4.18;;
20567;SDS011;10442;49.932;11.592;2023-04-25T03:01:30;4.20;;;3.90;;
20567;SDS011;10442;49.932;11.592;2023-04-25T03:03:57;4.65;;;4.32;;
20567;SDS011;10442;49.932;11.592;2023-04-25T03:06:24;3.95;;;3.65;;
20567;SDS011;10442;49.932;11.592;2023-04-25T03:08:52;5.55;;;5.05;;
20567;SDS011;10442;49.932;11.592;2023-04-25T03:11:20;4.93;;;4.53;;
20567;SDS011;10442;49.932;11.592;2023-04-25T03:13:48;4.55;;;4.15;;
20567;SDS011;10442;49.932;11.592;2023-04-25T03:16:16;4.13;;;3.83;;
20567;SDS011;10442;49.932;11.592;2023-04-25T03:18:43;4.13;;;3.83;;
20567;SDS011;10442;49.932;11.592;2023-04-25T03:21:11;5.00;;;4.68;;
20567;SDS011;10442;49.932;11.592;2023-04-25T03:23:38;4.82;;;4.25;;
20567;SDS011;10442;49.932;11.592;2023-04-25T03:26:07;10.82;;;5.22;;
20567;SDS011;10442;49.932;11.592;2023-04-25T03:28:34;4.43;;;4.13;;
20567;SDS011;10442;49.932;11.592;2023-04-25T03:31:01;4.38;;;4.07;;
20567;SDS011;10442;49.932;11.592;2023-04-25T03:33:29;4.68;;;3.88;;
20567;SDS011;10442;49.932;11.592;2023-04-25T03:35:57;4.38;;;4.07;;
20567;SDS011;10442;49.932;11.592;2023-04-25T03:38:27;4.82;;;4.43;;
20567;SDS011;10442;49.932;11.592;2023-04-25T03:40:54;5.05;;;4.65;;
20567;SDS011;10442;49.932;11.592;2023-04-25T03:43:36;4.78;;;4.38;;
20567;SDS011;10442;49.932;11.592;2023-04-25T03:46:09;5.53;;;5.03;;
20567;SDS011;10442;49.932;11.592;2023-04-25T03:48:37;5.05;;;4.65;;
20567;SDS011;10442;49.932;11.592;2023-04-25T03:51:06;5.30;;;4.90;;
20567;SDS011;10442;49.932;11.592;2023-04-25T03:53:37;4.60;;;4.25;;
20567;SDS011;10442;49.932;11.592;2023-04-25T03:56:13;4.55;;;4.25;;
20567;SDS011;10442;49.932;11.592;2023-04-25T03:58:41;5.85;;;5.45;;
20567;SDS011;10442;49.932;11.592;2023-04-25T04:01:09;5.25;;;4.85;;
20567;SDS011;10442;49.932;11.592;2023-04-25T04:03:39;4.60;;;4.28;;
20567;SDS011;10442;49.932;11.592;2023-04-25T04:06:07;5.35;;;4.95;;
20567;SDS011;10442;49.932;11.592;2023-04-25T04:08:38;5.28;;;3.97;;
20567;SDS011;10442;49.932;11.592;2023-04-25T04:11:06;4.82;;;4.43;;
20567;SDS011;10442;49.932;11.592;2023-04-25T04:13:33;5.28;;;4.78;;
20567;SDS011;10442;49.932;11.592;2023-04-25T04:16:01;5.45;;;4.95;;
20567;SDS011;10442;49.932;11.592;2023-04-25T04:18:31;4.82;;;4.53;;
20567;SDS011;10442;49.932;11.592;2023-04-25T04:21:01;5.85;;;4.53;;
20567;SDS011;10442;49.932;11.592;2023-04-25T04:23:31;4.78;;;4.38;;
20567;SDS011;10442;49.932;11.592;2023-04-25T04:25:59;4.57;;;4.28;;
20567;SDS011;10442;49.932;11.592;2023-04-25T04:28:43;5.10;;;4.70;;
20567;SDS011;10442;49.932;11.592;2023-04-25T04:31:34;5.20;;;4.70;;
20567;SDS011;10442;49.932;11.592;2023-04-25T04:34:02;4.57;;;4.18;;
20567;SDS011;10442;49.932;11.592;2023-04-25T04:36:30;4.20;;;3.80;;
20567;SDS011;10442;49.932;11.592;2023-04-25T04:38:58;3.83;;;3.45;;
20567;SDS011;10442;49.932;11.592;2023-04-25T04:41:35;5.00;;;4.50;;
20567;SDS011;10442;49.932;11.592;2023-04-25T04:44:29;5.30;;;4.80;;
20567;SDS011;10442;49.932;11.592;2023-04-25T04:47:18;5.72;;;5.22;;
20567;SDS011;10442;49.932;11.592;2023-04-25T04:50:13;4.30;;;3.90;;
20567;SDS011;10442;49.932;11.592;2023-04-25T04:53:09;4.28;;;3.92;;
20567;SDS011;10442;49.932;11.592;2023-04-25T04:55:46;4.35;;;4.03;;
20567;SDS011;10442;49.932;11.592;2023-04-25T04:58:37;5.63;;;4.50;;
20567;SDS011;10442;49.932;11.592;2023-04-25T05:01:12;5.00;;;4.57;;
20567;SDS011;10442;49.932;11.592;2023-04-25T05:04:05;4.53;;;4.15;;
20567;SDS011;10442;49.932;11.592;2023-04-25T05:06:48;4.70;;;4.35;;
20567;SDS011;10442;49.932;11.592;2023-04-25T05:09:38;5.07;;;4.68;;
20567;SDS011;10442;49.932;11.592;2023-04-25T05:12:26;4.80;;;4.50;;
20567;SDS011;10442;49.932;11.592;2023-04-25T05:15:07;4.43;;;4.03;;
20567;SDS011;10442;49.932;11.592;2023-04-25T05:17:50;4.28;;;3.97;;
20567;SDS011;10442;49.932;11.592;2023-04-25T05:20:44;4.38;;;4.07;;
20567;SDS011;10442;49.932;11.592;2023-04-25T05:23:34;4.25;;;3.95;;
20567;SDS011;10442;49.932;11.592;2023-04-25T05:26:22;3.22;;;3.03;;
20567;SDS011;10442;49.932;11.592;2023-04-25T05:28:59;5.07;;;2.92;;
20567;SDS011;10442;49.932;11.592;2023-04-25T05:31:53;2.55;;;2.35;;
20567;SDS011;10442;49.932;11.592;2023-04-25T05:34:20;2.08;;;1.80;;
20567;SDS011;10442;49.932;11.592;2023-04-25T05:36:55;3.15;;;2.35;;
20567;SDS011;10442;49.932;11.592;2023-04-25T05:39:24;2.75;;;2.55;;
20567;SDS011;10442;49.932;11.592;2023-04-25T05:42:11;2.03;;;1.92;;
20567;SDS011;10442;49.932;11.592;2023-04-25T05:44:51;2.70;;;1.95;;
20567;SDS011;10442;49.932;11.592;2023-04-25T05:47:37;1.90;;;1.75;;
20567;SDS011;10442;49.932;11.592;2023-04-25T05:50:17;1.50;;;1.40;;
20567;SDS011;10442;49.932;11.592;2023-04-25T05:52:51;1.48;;;1.38;;
20567;SDS011;10442;49.932;11.592;2023-04-25T05:55:35;1.45;;;1.38;;
20567;SDS011;10442;49.932;11.592;2023-04-25T05:58:16;1.13;;;1.10;;
20567;SDS011;10442;49.932;11.592;2023-04-25T06:00:44;1.75;;;1.60;;
20567;SDS011;10442;49.932;11.592;2023-04-25T06:03:12;1.10;;;1.10;;
20567;SDS011;10442;49.932;11.592;2023-04-25T06:05:46;1.10;;;1.10;;
20567;SDS011;10442;49.932;11.592;2023-04-25T06:08:13;1.58;;;1.48;;
20567;SDS011;10442;49.932;11.592;2023-04-25T06:10:41;1.15;;;1.15;;
20567;SDS011;10442;49.932;11.592;2023-04-25T06:13:08;1.45;;;1.35;;
20567;SDS011;10442;49.932;11.592;2023-04-25T06:15:36;1.30;;;1.30;;
20567;SDS011;10442;49.932;11.592;2023-04-25T06:18:04;5.03;;;1.73;;
20567;SDS011;10442;49.932;11.592;2023-04-25T06:20:33;1.50;;;1.40;;
20567;SDS011;10442;49.932;11.592;2023-04-25T06:23:01;1.55;;;1.45;;
20567;SDS011;10442;49.932;11.592;2023-04-25T06:25:48;1.10;;;1.10;;
20567;SDS011;10442;49.932;11.592;2023-04-25T06:28:15;1.67;;;1.58;;
20567;SDS011;10442;49.932;11.592;2023-04-25T06:30:44;1.83;;;1.58;;
20567;SDS011;10442;49.932;11.592;2023-04-25T06:33:16;1.40;;;1.30;;
20567;SDS011;10442;49.932;11.592;2023-04-25T06:35:45;1.73;;;1.63;;
20567;SDS011;10442;49.932;11.592;2023-04-25T06:38:15;1.92;;;1.83;;
20567;SDS011;10442;49.932;11.592;2023-04-25T06:40:46;1.60;;;1.50;;
20567;SDS011;10442;49.932;11.592;2023-04-25T06:43:14;3.72;;;2.08;;
20567;SDS011;10442;49.932;11.592;2023-04-25T06:46:01;1.95;;;1.85;;
20567;SDS011;10442;49.932;11.592;2023-04-25T06:48:31;1.95;;;1.85;;
20567;SDS011;10442;49.932;11.592;2023-04-25T06:50:58;2.05;;;1.95;;
20567;SDS011;10442;49.932;11.592;2023-04-25T06:53:26;1.77;;;1.67;;
20567;SDS011;10442;49.932;11.592;2023-04-25T06:55:58;1.45;;;1.35;;
20567;SDS011;10442;49.932;11.592;2023-04-25T06:58:34;2.15;;;1.95;;
20567;SDS011;10442;49.932;11.592;2023-04-25T07:01:24;1.75;;;1.65;;
20567;SDS011;10442;49.932;11.592;2023-04-25T07:03:52;3.50;;;3.28;;
20567;SDS011;10442;49.932;11.592;2023-04-25T07:06:20;3.65;;;2.75;;
20567;SDS011;10442;49.932;11.592;2023-04-25T07:08:47;3.40;;;2.90;;
20567;SDS011;10442;49.932;11.592;2023-04-25T07:11:15;2.00;;;1.90;;
20567;SDS011;10442;49.932;11.592;2023-04-25T07:13:43;3.75;;;2.65;;
20567;SDS011;10442;49.932;11.592;2023-04-25T07:16:10;2.28;;;2.17;;
20567;SDS011;10442;49.932;11.592;2023-04-25T07:18:38;4.82;;;2.33;;
20567;SDS011;10442;49.932;11.592;2023-04-25T07:21:05;4.32;;;2.13;;
20567;SDS011;10442;49.932;11.592;2023-04-25T07:23:34;2.10;;;1.92;;
20567;SDS011;10442;49.932;11.592;2023-04-25T07:26:08;5.50;;;5.00;;
20567;SDS011;10442;49.932;11.592;2023-04-25T07:28:40;3.33;;;3.03;;
20567;SDS011;10442;49.932;11.592;2023-04-25T07:31:07;1.92;;;1.83;;
20567;SDS011;10442;49.932;11.592;2023-04-25T07:33:35;2.75;;;2.15;;
20567;SDS011;10442;49.932;11.592;2023-04-25T07:36:03;4.05;;;3.33;;
20567;SDS011;10442;49.932;11.592;2023-04-25T07:38:31;1.95;;;1.85;;
20567;SDS011;10442;49.932;11.592;2023-04-25T07:40:58;2.25;;;2.13;;
20567;SDS011;10442;49.932;11.592;2023-04-25T07:43:26;2.60;;;2.40;;
20567;SDS011;10442;49.932;11.592;2023-04-25T07:45:57;2.95;;;2.75;;
20567;SDS011;10442;49.932;11.592;2023-04-25T07:48:27;2.70;;;2.50;;
20567;SDS011;10442;49.932;11.592;2023-04-25T07:50:55;3.80;;;2.50;;
20567;SDS011;10442;49.932;11.592;2023-04-25T07:53:23;3.03;;;2.42;;
20567;SDS011;10442;49.932;11.592;2023-04-25T07:55:55;2.80;;;2.60;;
20567;SDS011;10442;49.932;11.592;2023-04-25T07:58:23;2.80;;;2.63;;
20567;SDS011;10442;49.932;11.592;2023-04-25T08:00:55;3.40;;;3.10;;
20567;SDS011;10442;49.932;11.592;2023-04-25T08:03:34;3.83;;;3.50;;
20567;SDS011;10442;49.932;11.592;2023-04-25T08:06:08;3.53;;;3.30;;
20567;SDS011;10442;49.932;11.592;2023-04-25T08:08:47;3.25;;;3.05;;
20567;SDS011;10442;49.932;11.592;2023-04-25T08:11:17;3.78;;;3.50;;
20567;SDS011;10442;49.932;11.592;2023-04-25T08:13:45;5.82;;;3.85;;
20567;SDS011;10442;49.932;11.592;2023-04-25T08:16:13;4.18;;;3.42;;
20567;SDS011;10442;49.932;11.592;2023-04-25T08:18:41;7.18;;;4.25;;
20567;SDS011;10442;49.932;11.592;2023-04-25T08:21:09;5.93;;;4.47;;
20567;SDS011;10442;49.932;11.592;2023-04-25T08:23:38;4.28;;;3.95;;
20567;SDS011;10442;49.932;11.592;2023-04-25T08:26:12;4.35;;;4.03;;
20567;SDS011;10442;49.932;11.592;2023-04-25T08:28:42;4.63;;;4.22;;
20567;SDS011;10442;49.932;11.592;2023-04-25T08:31:09;3.42;;;3.15;;
20567;SDS011;10442;49.932;11.592;2023-04-25T08:33:49;4.47;;;4.00;;
20567;SDS011;10442;49.932;11.592;2023-04-25T08:36:26;6.93;;;3.70;;
20567;SDS011;10442;49.932;11.592;2023-04-25T08:38:58;3.97;;;3.10;;
20567;SDS011;10442;49.932;11.592;2023-04-25T08:41:26;4.28;;;3.88;;
20567;SDS011;10442;49.932;11.592;2023-04-25T08:43:55;13.40;;;9.15;;
20567;SDS011;10442;49.932;11.592;2023-04-25T08:46:27;6.15;;;5.65;;
20567;SDS011;10442;49.932;11.592;2023-04-25T08:49:07;3.88;;;3.58;;
20567;SDS011;10442;49.932;11.592;2023-04-25T08:51:44;3.85;;;3.53;;
20567;SDS011;10442;49.932;11.592;2023-04-25T08:54:15;7.22;;;5.88;;
20567;SDS011;10442;49.932;11.592;2023-04-25T08:57:01;4.45;;;3.88;;
20567;SDS011;10442;49.932;11.592;2023-04-25T08:59:29;17.17;;;4.72;;
20567;SDS011;10442;49.932;11.592;2023-04-25T09:01:58;4.57;;;3.72;;
20567;SDS011;10442;49.932;11.592;2023-04-25T09:04:26;5.45;;;4.45;;
20567;SDS011;10442;49.932;11.592;2023-04-25T09:06:54;4.13;;;3.83;;
20567;SDS011;10442;49.932;11.592;2023-04-25T09:09:23;6.60;;;4.50;;
20567;SDS011;10442;49.932;11.592;2023-04-25T09:11:52;4.55;;;4.03;;
20567;SDS011;10442;49.932;11.592;2023-04-25T09:14:23;4.90;;;4.50;;
20567;SDS011;10442;49.932;11.592;2023-04-25T09:17:02;3.70;;;3.20;;
20567;SDS011;10442;49.932;11.592;2023-04-25T09:19:52;5.70;;;3.53;;
20567;SDS011;10442;49.932;11.592;2023-04-25T09:22:24;4.93;;;3.40;;
20567;SDS011;10442;49.932;11.592;2023-04-25T09:24:52;5.93;;;4.22;;
20567;SDS011;10442;49.932;11.592;2023-04-25T09:27:23;3.75;;;3.08;;
20567;SDS011;10442;49.932;11.592;2023-04-25T09:30:00;3.60;;;3.30;;
20567;SDS011;10442;49.932;11.592;2023-04-25T09:32:37;3.40;;;3.08;;
20567;SDS011;10442;49.932;11.592;2023-04-25T09:35:05;5.60;;;5.10;;
20567;SDS011;10442;49.932;11.592;2023-04-25T09:37:33;6.35;;;5.22;;
20567;SDS011;10442;49.932;11.592;2023-04-25T09:40:30;3.97;;;2.97;;
20567;SDS011;10442;49.932;11.592;2023-04-25T09:43:19;3.33;;;3.05;;
20567;SDS011;10442;49.932;11.592;2023-04-25T09:45:51;2.83;;;2.63;;
20567;SDS011;10442;49.932;11.592;2023-04-25T09:48:26;2.42;;;2.22;;
20567;SDS011;10442;49.932;11.592;2023-04-25T09:51:07;2.67;;;2.47;;
20567;SDS011;10442;49.932;11.592;2023-04-25T09:53:43;3.28;;;2.97;;
20567;SDS011;10442;49.932;11.592;2023-04-25T09:56:33;4.82;;;3.25;;
20567;SDS011;10442;49.932;11.592;2023-04-25T09:59:06;3.40;;;3.10;;
20567;SDS011;10442;49.932;11.592;2023-04-25T10:01:36;3.65;;;3.33;;
20567;SDS011;10442;49.932;11.592;2023-04-25T10:04:14;6.00;;;5.38;;
20567;SDS011;10442;49.932;11.592;2023-04-25T10:07:03;2.50;;;2.10;;
20567;SDS011;10442;49.932;11.592;2023-04-25T10:09:33;3.03;;;2.60;;
20567;SDS011;10442;49.932;11.592;2023-04-25T10:12:04;3.47;;;2.83;;
20567;SDS011;10442;49.932;11.592;2023-04-25T10:14:33;3.55;;;3.25;;
20567;SDS011;10442;49.932;11.592;2023-04-25T10:17:01;3.47;;;2.50;;
20567;SDS011;10442;49.932;11.592;2023-04-25T10:19:28;3.30;;;3.00;;
20567;SDS011;10442;49.932;11.592;2023-04-25T10:22:04;3.65;;;3.35;;
20567;SDS011;10442;49.932;11.592;2023-04-25T10:24:41;2.60;;;2.28;;
20567;SDS011;10442;49.932;11.592;2023-04-25T10:27:10;4.00;;;2.97;;
20567;SDS011;10442;49.932;11.592;2023-04-25T10:29:38;2.33;;;2.20;;
20567;SDS011;10442;49.932;11.592;2023-04-25T10:32:05;4.72;;;2.65;;
20567;SDS011;10442;49.932;11.592;2023-04-25T10:37:08;3.50;;;2.50;;
20567;SDS011;10442;49.932;11.592;2023-04-25T10:39:38;3.63;;;2.40;;
20567;SDS011;10442;49.932;11.592;2023-04-25T10:42:07;2.72;;;2.53;;
20567;SDS011;10442;49.932;11.592;2023-04-25T10:44:39;2.72;;;2.00;;
20567;SDS011;10442;49.932;11.592;2023-04-25T10:47:07;3.75;;;3.40;;
20567;SDS011;10442;49.932;11.592;2023-04-25T10:49:38;3.15;;;2.47;;
20567;SDS011;10442;49.932;11.592;2023-04-25T10:54:42;6.00;;;3.03;;
20567;SDS011;10442;49.932;11.592;2023-04-25T11:05:16;1.88;;;1.75;;
20567;SDS011;10442;49.932;11.592;2023-04-25T11:07:52;2.60;;;1.95;;
20567;SDS011;10442;49.932;11.592;2023-04-25T11:10:33;4.07;;;2.03;;
20567;SDS011;10442;49.932;11.592;2023-04-25T11:13:04;2.10;;;1.88;;
20567;SDS011;10442;49.932;11.592;2023-04-25T11:15:32;2.63;;;2.42;;
20567;SDS011;10442;49.932;11.592;2023-04-25T11:17:59;2.50;;;2.00;;
20567;SDS011;10442;49.932;11.592;2023-04-25T11:20:28;2.25;;;1.95;;
20567;SDS011;10442;49.932;11.592;2023-04-25T11:22:57;4.60;;;2.10;;
20567;SDS011;10442;49.932;11.592;2023-04-25T11:25:26;1.90;;;1.63;;
20567;SDS011;10442;49.932;11.592;2023-04-25T11:27:56;2.22;;;1.95;;
20567;SDS011;10442;49.932;11.592;2023-04-25T11:30:25;1.90;;;1.80;;
20567;SDS011;10442;49.932;11.592;2023-04-25T11:32:53;1.58;;;1.42;;
20567;SDS011;10442;49.932;11.592;2023-04-25T11:35:21;1.40;;;1.30;;
20567;SDS011;10442;49.932;11.592;2023-04-25T11:37:50;1.75;;;1.55;;
20567;SDS011;10442;49.932;11.592;2023-04-25T11:40:19;1.95;;;1.33;;
20567;SDS011;10442;49.932;11.592;2023-04-25T11:42:46;1.05;;;1.02;;
20567;SDS011;10442;49.932;11.592;2023-04-25T11:45:14;1.52;;;1.02;;
20567;SDS011;10442;49.932;11.592;2023-04-25T11:47:42;0.80;;;0.80;;
20567;SDS011;10442;49.932;11.592;2023-04-25T11:50:09;1.00;;;1.00;;
20567;SDS011;10442;49.932;11.592;2023-04-25T11:55:07;4.03;;;1.63;;
20567;SDS011;10442;49.932;11.592;2023-04-25T11:57:38;2.65;;;1.30;;
20567;SDS011;10442;49.932;11.592;2023-04-25T12:02:45;1.10;;;1.10;;
20567;SDS011;10442;49.932;11.592;2023-04-25T12:05:15;1.90;;;1.50;;
20567;SDS011;10442;49.932;11.592;2023-04-25T12:08:13;1.10;;;1.02;;
20567;SDS011;10442;49.932;11.592;2023-04-25T12:10:43;1.00;;;1.00;;
20567;SDS011;10442;49.932;11.592;2023-04-25T12:13:24;1.17;;;1.17;;
20567;SDS011;10442;49.932;11.592;2023-04-25T12:15:56;1.00;;;1.00;;
20567;SDS011;10442;49.932;11.592;2023-04-25T12:18:24;1.63;;;1.27;;
20567;SDS011;10442;49.932;11.592;2023-04-25T12:20:55;2.47;;;1.10;;
20567;SDS011;10442;49.932;11.592;2023-04-25T12:23:29;1.75;;;1.60;;
20567;SDS011;10442;49.932;11.592;2023-04-25T12:25:57;1.17;;;1.17;;
20567;SDS011;10442;49.932;11.592;2023-04-25T12:28:25;1.42;;;1.33;;
20567;SDS011;10442;49.932;11.592;2023-04-25T12:30:56;1.15;;;1.05;;
20567;SDS011;10442;49.932;11.592;2023-04-25T12:33:27;2.30;;;1.65;;
20567;SDS011;10442;49.932;11.592;2023-04-25T12:35:56;1.02;;;1.02;;
20567;SDS011;10442;49.932;11.592;2023-04-25T12:38:25;2.47;;;1.08;;
20567;SDS011;10442;49.932;11.592;2023-04-25T12:40:54;1.15;;;1.15;;
20567;SDS011;10442;49.932;11.592;2023-04-25T12:43:22;1.48;;;1.38;;
20567;SDS011;10442;49.932;11.592;2023-04-25T12:45:50;1.92;;;1.50;;
20567;SDS011;10442;49.932;11.592;2023-04-25T12:48:19;1.48;;;1.38;;
20567;SDS011;10442;49.932;11.592;2023-04-25T12:50:48;3.08;;;1.70;;
20567;SDS011;10442;49.932;11.592;2023-04-25T12:53:16;1.60;;;1.50;;
20567;SDS011;10442;49.932;11.592;2023-04-25T12:55:45;2.20;;;1.52;;
20567;SDS011;10442;49.932;11.592;2023-04-25T12:58:17;2.33;;;1.83;;
20567;SDS011;10442;49.932;11.592;2023-04-25T13:00:45;1.55;;;1.45;;
20567;SDS011;10442;49.932;11.592;2023-04-25T13:03:13;1.65;;;1.55;;
20567;SDS011;10442;49.932;11.592;2023-04-25T13:05:41;1.40;;;1.20;;
20567;SDS011;10442;49.932;11.592;2023-04-25T13:08:09;1.67;;;1.58;;
20567;SDS011;10442;49.932;11.592;2023-04-25T13:10:36;1.33;;;1.20;;
20567;SDS011;10442;49.932;11.592;2023-04-25T13:13:05;2.20;;;2.00;;
20567;SDS011;10442;49.932;11.592;2023-04-25T13:15:33;1.60;;;1.50;;
20567;SDS011;10442;49.932;11.592;2023-04-25T13:18:03;1.65;;;1.55;;
20567;SDS011;10442;49.932;11.592;2023-04-25T13:20:32;2.60;;;2.10;;
20567;SDS011;10442;49.932;11.592;2023-04-25T13:23:00;1.75;;;1.42;;
20567;SDS011;10442;49.932;11.592;2023-04-25T13:25:29;1.23;;;1.13;;
20567;SDS011;10442;49.932;11.592;2023-04-25T13:27:56;3.40;;;1.70;;
20567;SDS011;10442;49.932;11.592;2023-04-25T13:30:24;1.88;;;1.77;;
20567;SDS011;10442;49.932;11.592;2023-04-25T13:32:52;1.10;;;1.00;;
20567;SDS011;10442;49.932;11.592;2023-04-25T13:35:23;1.67;;;1.58;;
20567;SDS011;10442;49.932;11.592;2023-04-25T13:37:50;2.60;;;1.63;;
20567;SDS011;10442;49.932;11.592;2023-04-25T13:40:18;1.90;;;1.80;;
20567;SDS011;10442;49.932;11.592;2023-04-25T13:42:45;2.10;;;1.60;;
20567;SDS011;10442;49.932;11.592;2023-04-25T13:45:13;1.63;;;1.52;;
20567;SDS011;10442;49.932;11.592;2023-04-25T13:47:40;2.83;;;1.77;;
20567;SDS011;10442;49.932;11.592;2023-04-25T13:50:08;2.28;;;2.00;;
20567;SDS011;10442;49.932;11.592;2023-04-25T13:52:36;4.10;;;2.28;;
20567;SDS011;10442;49.932;11.592;2023-04-25T13:55:04;2.10;;;1.73;;
20567;SDS011;10442;49.932;11.592;2023-04-25T13:57:33;1.75;;;1.55;;
20567;SDS011;10442;49.932;11.592;2023-04-25T14:00:02;2.40;;;1.48;;
20567;SDS011;10442;49.932;11.592;2023-04-25T14:02:35;1.60;;;1.50;;
20567;SDS011;10442;49.932;11.592;2023-04-25T14:05:03;2.42;;;1.15;;
20567;SDS011;10442;49.932;11.592;2023-04-25T14:07:33;1.92;;;1.45;;
20567;SDS011;10442;49.932;11.592;2023-04-25T14:10:02;1.73;;;1.60;;
20567;SDS011;10442;49.932;11.592;2023-04-25T14:12:31;2.10;;;1.88;;
20567;SDS011;10442;49.932;11.592;2023-04-25T14:14:59;1.55;;;1.30;;
20567;SDS011;10442;49.932;11.592;2023-04-25T14:17:27;1.92;;;1.65;;
20567;SDS011;10442;49.932;11.592;2023-04-25T14:19:54;1.17;;;1.17;;
20567;SDS011;10442;49.932;11.592;2023-04-25T14:22:22;1.73;;;1.63;;
20567;SDS011;10442;49.932;11.592;2023-04-25T14:24:49;1.67;;;1.50;;
20567;SDS011;10442;49.932;11.592;2023-04-25T14:27:17;3.45;;;1.80;;
20567;SDS011;10442;49.932;11.592;2023-04-25T14:29:44;3.72;;;3.08;;
20567;SDS011;10442;49.932;11.592;2023-04-25T14:32:11;2.47;;;1.98;;
20567;SDS011;10442;49.932;11.592;2023-04-25T14:34:39;2.45;;;2.10;;
20567;SDS011;10442;49.932;11.592;2023-04-25T14:37:07;2.03;;;1.70;;
20567;SDS011;10442;49.932;11.592;2023-04-25T14:39:34;3.13;;;2.65;;
20567;SDS011;10442;49.932;11.592;2023-04-25T14:42:02;2.40;;;1.95;;
20567;SDS011;10442;49.932;11.592;2023-04-25T14:44:30;2.25;;;1.90;;
20567;SDS011;10442;49.932;11.592;2023-04-25T14:46:57;3.15;;;1.70;;
20567;SDS011;10442;49.932;11.592;2023-04-25T14:49:25;3.38;;;1.80;;
20567;SDS011;10442;49.932;11.592;2023-04-25T14:51:52;2.03;;;1.90;;
20567;SDS011;10442;49.932;11.592;2023-04-25T14:54:20;1.98;;;1.88;;
20567;SDS011;10442;49.932;11.592;2023-04-25T14:56:47;2.05;;;1.75;;
20567;SDS011;10442;49.932;11.592;2023-04-25T14:59:15;1.70;;;1.50;;
20567;SDS011;10442;49.932;11.592;2023-04-25T15:01:43;1.48;;;1.38;;
20567;SDS011;10442;49.932;11.592;2023-04-25T15:04:10;2.13;;;1.55;;
20567;SDS011;10442;49.932;11.592;2023-04-25T15:06:39;3.08;;;2.03;;
20567;SDS011;10442;49.932;11.592;2023-04-25T15:09:07;1.92;;;1.80;;
20567;SDS011;10442;49.932;11.592;2023-04-25T15:11:35;2.90;;;1.85;;
20567;SDS011;10442;49.932;11.592;2023-04-25T15:14:03;2.88;;;2.08;;